createdAt,value
2024-02-18T00:00:36.703Z,502.00
2024-02-18T00:01:36.758Z,502.00
2024-02-18T00:02:36.741Z,502.00
2024-02-18T00:03:36.798Z,504.00
2024-02-18T00:04:36.954Z,506.00
2024-02-18T00:05:36.792Z,506.00
2024-02-18T00:06:36.984Z,503.00
2024-02-18T00:07:36.992Z,504.00
2024-02-18T00:08:36.914Z,504.00
2024-02-18T00:09:36.953Z,505.00
2024-02-18T00:10:36.976Z,505.00
2024-02-18T00:11:37.017Z,503.00
2024-02-18T00:12:37.087Z,503.00
2024-02-18T00:13:37.093Z,504.00
2024-02-18T00:14:37.094Z,502.00
2024-02-18T00:15:37.224Z,503.00
2024-02-18T00:16:37.114Z,503.00
2024-02-18T00:17:37.193Z,503.00
2024-02-18T00:18:37.285Z,501.00
2024-02-18T00:19:37.333Z,498.00
2024-02-18T00:20:37.256Z,502.00
2024-02-18T00:21:37.290Z,502.00
2024-02-18T00:22:37.321Z,501.00
2024-02-18T00:23:37.319Z,499.00
2024-02-18T00:24:37.350Z,498.00
2024-02-18T00:25:37.394Z,498.00
2024-02-18T00:26:44.882Z,499.00
2024-02-18T00:27:38.451Z,500.00
2024-02-18T00:28:37.410Z,500.00
2024-02-18T00:29:37.792Z,499.00
2024-02-18T00:30:37.461Z,500.00
2024-02-18T00:31:37.422Z,497.00
2024-02-18T00:32:37.522Z,495.00
2024-02-18T00:33:37.683Z,493.00
2024-02-18T00:34:37.622Z,497.00
2024-02-18T00:35:37.442Z,500.00
2024-02-18T00:36:37.516Z,501.00
2024-02-18T00:37:37.440Z,498.00
2024-02-18T00:38:37.436Z,498.00
2024-02-18T00:39:37.464Z,496.00
2024-02-18T00:40:37.421Z,498.00
2024-02-18T00:41:37.446Z,500.00
2024-02-18T00:42:37.470Z,499.00
2024-02-18T00:43:37.423Z,499.00
2024-02-18T00:44:37.484Z,499.00
2024-02-18T00:45:37.553Z,499.00
2024-02-18T00:46:44.908Z,498.00
2024-02-18T00:47:38.539Z,496.00
2024-02-18T00:48:37.752Z,498.00
2024-02-18T00:49:37.696Z,496.00
2024-02-18T00:50:37.573Z,498.00
2024-02-18T00:51:37.596Z,500.00
2024-02-18T00:52:37.540Z,502.00
2024-02-18T00:53:37.552Z,502.00
2024-02-18T00:54:37.559Z,500.00
2024-02-18T00:55:37.558Z,499.00
2024-02-18T00:56:37.570Z,501.00
2024-02-18T00:57:37.628Z,502.00
2024-02-18T00:58:37.542Z,500.00
2024-02-18T00:59:37.529Z,500.00
2024-02-18T01:00:37.631Z,499.00
2024-02-18T01:01:37.715Z,497.00
2024-02-18T01:02:37.559Z,495.00
2024-02-18T01:03:37.622Z,497.00
2024-02-18T01:04:37.585Z,495.00
2024-02-18T01:05:37.593Z,492.00
2024-02-18T01:06:37.595Z,494.00
2024-02-18T01:07:37.615Z,493.00
2024-02-18T01:08:37.613Z,494.00
2024-02-18T01:09:37.913Z,492.00
2024-02-18T01:10:37.702Z,492.00
2024-02-18T01:11:37.708Z,489.00
2024-02-18T01:12:37.847Z,491.00
2024-02-18T01:13:37.757Z,493.00
2024-02-18T01:14:37.810Z,493.00
2024-02-18T01:15:37.841Z,493.00
2024-02-18T01:16:37.856Z,492.00
2024-02-18T01:17:38.134Z,492.00
2024-02-18T01:18:38.023Z,493.00
2024-02-18T01:19:38.067Z,495.00
2024-02-18T01:20:37.964Z,490.00
2024-02-18T01:21:38.025Z,491.00
2024-02-18T01:22:38.072Z,492.00
2024-02-18T01:23:38.087Z,492.00
2024-02-18T01:24:38.165Z,494.00
2024-02-18T01:25:38.103Z,494.00
2024-02-18T01:26:38.149Z,495.00
2024-02-18T01:27:38.252Z,497.00
2024-02-18T01:28:38.209Z,497.00
2024-02-18T01:29:38.235Z,496.00
2024-02-18T01:30:38.293Z,494.00
2024-02-18T01:31:38.264Z,494.00
2024-02-18T01:32:38.315Z,495.00
2024-02-18T01:33:38.402Z,496.00
2024-02-18T01:34:38.823Z,494.00
2024-02-18T01:35:38.405Z,491.00
2024-02-18T01:36:38.489Z,489.00
2024-02-18T01:37:38.446Z,490.00
2024-02-18T01:38:38.513Z,490.00
2024-02-18T01:39:40.002Z,493.00
2024-02-18T01:40:38.683Z,493.00
2024-02-18T01:41:38.735Z,493.00
2024-02-18T01:42:38.784Z,493.00
2024-02-18T01:43:38.770Z,497.00
2024-02-18T01:44:38.784Z,497.00
2024-02-18T01:45:38.845Z,496.00
2024-02-18T01:46:38.872Z,495.00
2024-02-18T01:47:38.901Z,493.00
2024-02-18T01:48:39.118Z,494.00
2024-02-18T01:49:39.036Z,496.00
2024-02-18T01:50:39.055Z,495.00
2024-02-18T01:51:38.989Z,497.00
2024-02-18T01:52:39.022Z,495.00
2024-02-18T01:53:39.038Z,496.00
2024-02-18T01:54:39.138Z,498.00
2024-02-18T01:55:39.104Z,498.00
2024-02-18T01:56:39.104Z,500.00
2024-02-18T01:57:39.211Z,501.00
2024-02-18T01:58:39.176Z,502.00
2024-02-18T01:59:39.187Z,503.00
2024-02-18T02:00:39.294Z,500.00
2024-02-18T02:01:39.396Z,502.00
2024-02-18T02:02:39.292Z,502.00
2024-02-18T02:03:39.435Z,504.00
2024-02-18T02:04:39.403Z,504.00
2024-02-18T02:05:39.407Z,504.00
2024-02-18T02:06:39.506Z,505.00
2024-02-18T02:07:39.430Z,507.00
2024-02-18T02:08:39.432Z,503.00
2024-02-18T02:09:39.482Z,505.00
2024-02-18T02:10:39.483Z,504.00
2024-02-18T02:11:39.526Z,502.00
2024-02-18T02:12:39.548Z,498.00
2024-02-18T02:13:39.586Z,494.00
2024-02-18T02:14:39.570Z,493.00
2024-02-18T02:15:39.656Z,495.00
2024-02-18T02:16:39.614Z,497.00
2024-02-18T02:17:39.808Z,498.00
2024-02-18T02:18:39.817Z,498.00
2024-02-18T02:19:39.851Z,498.00
2024-02-18T02:20:39.789Z,498.00
2024-02-18T02:21:39.814Z,496.00
2024-02-18T02:22:39.927Z,498.00
2024-02-18T02:23:39.847Z,498.00
2024-02-18T02:24:39.987Z,498.00
2024-02-18T02:25:39.915Z,498.00
2024-02-18T02:26:39.916Z,498.00
2024-02-18T02:27:39.959Z,499.00
2024-02-18T02:28:39.947Z,499.00
2024-02-18T02:29:39.955Z,499.00
2024-02-18T02:30:40.008Z,498.00
2024-02-18T02:31:40.006Z,495.00
2024-02-18T02:32:40.114Z,496.00
2024-02-18T02:33:40.084Z,496.00
2024-02-18T02:34:40.142Z,498.00
2024-02-18T02:35:40.094Z,499.00
2024-02-18T02:36:40.123Z,498.00
2024-02-18T02:37:40.163Z,501.00
2024-02-18T02:38:40.164Z,505.00
2024-02-18T02:39:40.196Z,506.00
2024-02-18T02:40:40.193Z,506.00
2024-02-18T02:41:40.244Z,507.00
2024-02-18T02:42:40.301Z,505.00
2024-02-18T02:43:40.304Z,504.00
2024-02-18T02:44:40.307Z,498.00
2024-02-18T02:45:40.356Z,497.00
2024-02-18T02:46:40.369Z,499.00
2024-02-18T02:47:40.420Z,500.00
2024-02-18T02:48:40.452Z,500.00
2024-02-18T02:49:40.525Z,501.00
2024-02-18T02:50:40.493Z,501.00
2024-02-18T02:51:40.540Z,501.00
2024-02-18T02:52:40.523Z,499.00
2024-02-18T02:53:40.556Z,499.00
2024-02-18T02:54:40.736Z,499.00
2024-02-18T02:55:40.584Z,500.00
2024-02-18T02:56:40.611Z,498.00
2024-02-18T02:57:40.708Z,499.00
2024-02-18T02:58:40.704Z,498.00
2024-02-18T02:59:40.713Z,498.00
2024-02-18T03:00:40.807Z,496.00
2024-02-18T03:01:40.862Z,498.00
2024-02-18T03:02:40.754Z,501.00
2024-02-18T03:03:40.892Z,502.00
2024-02-18T03:04:41.467Z,501.00
2024-02-18T03:05:40.890Z,500.00
2024-02-18T03:06:40.921Z,500.00
2024-02-18T03:07:40.911Z,497.00
2024-02-18T03:08:41.940Z,498.00
2024-02-18T03:09:41.088Z,499.00
2024-02-18T03:10:41.021Z,501.00
2024-02-18T03:11:41.059Z,501.00
2024-02-18T03:12:41.235Z,499.00
2024-02-18T03:13:41.077Z,500.00
2024-02-18T03:14:41.132Z,499.00
2024-02-18T03:15:41.228Z,499.00
2024-02-18T03:16:41.133Z,499.00
2024-02-18T03:17:41.960Z,497.00
2024-02-18T03:18:41.282Z,497.00
2024-02-18T03:19:41.436Z,494.00
2024-02-18T03:20:41.242Z,493.00
2024-02-18T03:21:41.250Z,493.00
2024-02-18T03:22:41.816Z,495.00
2024-02-18T03:23:41.233Z,497.00
2024-02-18T03:24:41.283Z,499.00
2024-02-18T03:25:41.217Z,499.00
2024-02-18T03:26:41.213Z,497.00
2024-02-18T03:27:41.264Z,495.00
2024-02-18T03:28:41.242Z,498.00
2024-02-18T03:29:41.224Z,497.00
2024-02-18T03:30:41.302Z,498.00
2024-02-18T03:31:41.259Z,503.00
2024-02-18T03:32:41.270Z,502.00
2024-02-18T03:33:41.270Z,502.00
2024-02-18T03:34:41.320Z,500.00
2024-02-18T03:35:41.263Z,497.00
2024-02-18T03:36:41.327Z,495.00
2024-02-18T03:37:41.263Z,495.00
2024-02-18T03:38:41.250Z,494.00
2024-02-18T03:39:41.311Z,497.00
2024-02-18T03:40:41.321Z,502.00
2024-02-18T03:41:41.273Z,503.00
2024-02-18T03:42:41.264Z,503.00
2024-02-18T03:43:42.306Z,503.00
2024-02-18T03:44:41.350Z,503.00
2024-02-18T03:45:41.391Z,502.00
2024-02-18T03:46:41.363Z,501.00
2024-02-18T03:47:41.367Z,502.00
2024-02-18T03:48:41.526Z,500.00
2024-02-18T03:49:41.475Z,499.00
2024-02-18T03:50:41.369Z,498.00
2024-02-18T03:51:41.390Z,501.00
2024-02-18T03:52:42.269Z,504.00
2024-02-18T03:53:41.370Z,505.00
2024-02-18T03:54:42.329Z,507.00
2024-02-18T03:55:42.317Z,508.00
2024-02-18T03:56:41.371Z,508.00
2024-02-18T03:57:41.401Z,507.00
2024-02-18T03:58:41.414Z,505.00
2024-02-18T03:59:41.367Z,508.00
2024-02-18T04:00:41.927Z,511.00
2024-02-18T04:01:41.484Z,513.00
2024-02-18T04:02:41.373Z,510.00
2024-02-18T04:03:41.611Z,507.00
2024-02-18T04:04:42.510Z,507.00
2024-02-18T04:05:45.503Z,505.00
2024-02-18T04:06:41.404Z,504.00
2024-02-18T04:07:41.399Z,503.00
2024-02-18T04:08:41.402Z,501.00
2024-02-18T04:09:41.421Z,500.00
2024-02-18T04:10:41.420Z,501.00
2024-02-18T04:11:41.481Z,499.00
2024-02-18T04:12:41.416Z,498.00
2024-02-18T04:13:41.409Z,496.00
2024-02-18T04:14:42.337Z,497.00
2024-02-18T04:15:41.447Z,500.00
2024-02-18T04:16:41.413Z,499.00
2024-02-18T04:17:42.432Z,496.00
2024-02-18T04:18:41.485Z,495.00
2024-02-18T04:19:41.612Z,495.00
2024-02-18T04:20:42.837Z,493.00
2024-02-18T04:21:41.432Z,495.00
2024-02-18T04:22:41.425Z,492.00
2024-02-18T04:23:41.429Z,491.00
2024-02-18T04:24:41.449Z,492.00
2024-02-18T04:25:41.861Z,490.00
2024-02-18T04:26:41.412Z,493.00
2024-02-18T04:27:41.477Z,494.00
2024-02-18T04:28:41.454Z,494.00
2024-02-18T04:29:41.420Z,498.00
2024-02-18T04:30:41.480Z,499.00
2024-02-18T04:31:41.448Z,498.00
2024-02-18T04:32:41.470Z,500.00
2024-02-18T04:33:41.594Z,502.00
2024-02-18T04:34:41.514Z,502.00
2024-02-18T04:35:41.484Z,500.00
2024-02-18T04:36:41.494Z,499.00
2024-02-18T04:37:41.563Z,498.00
2024-02-18T04:38:41.531Z,498.00
2024-02-18T04:39:41.536Z,501.00
2024-02-18T04:40:41.504Z,498.00
2024-02-18T04:41:41.523Z,496.00
2024-02-18T04:42:41.626Z,493.00
2024-02-18T04:43:41.617Z,492.00
2024-02-18T04:44:41.615Z,494.00
2024-02-18T04:45:49.016Z,490.00
2024-02-18T04:46:48.923Z,485.00
2024-02-18T04:47:49.939Z,481.00
2024-02-18T04:48:49.037Z,484.00
2024-02-18T04:49:48.996Z,489.00
2024-02-18T04:50:48.957Z,493.00
2024-02-18T04:51:48.935Z,495.00
2024-02-18T04:52:49.521Z,496.00
2024-02-18T04:53:48.920Z,497.00
2024-02-18T04:54:48.959Z,496.00
2024-02-18T04:55:48.927Z,497.00
2024-02-18T04:56:48.936Z,500.00
2024-02-18T04:57:48.955Z,497.00
2024-02-18T04:58:48.971Z,498.00
2024-02-18T04:59:48.949Z,501.00
2024-02-18T05:00:48.988Z,496.00
2024-02-18T05:01:48.961Z,498.00
2024-02-18T05:02:48.968Z,499.00
2024-02-18T05:03:49.519Z,502.00
2024-02-18T05:04:48.949Z,500.00
2024-02-18T05:05:49.102Z,501.00
2024-02-18T05:06:49.028Z,503.00
2024-02-18T05:07:48.936Z,506.00
2024-02-18T05:08:49.049Z,503.00
2024-02-18T05:09:48.979Z,504.00
2024-02-18T05:10:48.953Z,503.00
2024-02-18T05:11:48.942Z,502.00
2024-02-18T05:12:49.131Z,503.00
2024-02-18T05:13:48.984Z,503.00
2024-02-18T05:14:49.036Z,503.00
2024-02-18T05:15:52.076Z,503.00
2024-02-18T05:16:49.047Z,503.00
2024-02-18T05:17:49.150Z,502.00
2024-02-18T05:18:49.350Z,500.00
2024-02-18T05:19:49.146Z,502.00
2024-02-18T05:20:49.020Z,505.00
2024-02-18T05:21:49.101Z,505.00
2024-02-18T05:22:49.067Z,502.00
2024-02-18T05:23:49.049Z,501.00
2024-02-18T05:24:49.179Z,501.00
2024-02-18T05:25:49.066Z,499.00
2024-02-18T05:26:49.045Z,500.00
2024-02-18T05:27:49.103Z,498.00
2024-02-18T05:28:49.052Z,498.00
2024-02-18T05:29:49.053Z,497.00
2024-02-18T05:30:49.088Z,495.00
2024-02-18T05:31:49.074Z,495.00
2024-02-18T05:32:49.122Z,495.00
2024-02-18T05:33:49.239Z,492.00
2024-02-18T05:34:49.252Z,492.00
2024-02-18T05:35:50.180Z,491.00
2024-02-18T05:36:49.150Z,494.00
2024-02-18T05:37:49.084Z,492.00
2024-02-18T05:38:49.105Z,491.00
2024-02-18T05:39:49.237Z,492.00
2024-02-18T05:40:49.556Z,493.00
2024-02-18T05:41:49.113Z,494.00
2024-02-18T05:42:49.178Z,495.00
2024-02-18T05:43:49.213Z,493.00
2024-02-18T05:44:49.198Z,493.00
2024-02-18T05:45:49.181Z,495.00
2024-02-18T05:46:49.098Z,494.00
2024-02-18T05:47:49.176Z,495.00
2024-02-18T05:48:49.196Z,497.00
2024-02-18T05:49:49.204Z,496.00
2024-02-18T05:50:49.125Z,499.00
2024-02-18T05:51:49.165Z,500.00
2024-02-18T05:52:49.116Z,501.00
2024-02-18T05:53:49.099Z,501.00
2024-02-18T05:54:49.115Z,499.00
2024-02-18T05:55:49.117Z,502.00
2024-02-18T05:56:49.208Z,501.00
2024-02-18T05:57:49.234Z,500.00
2024-02-18T05:58:49.144Z,499.00
2024-02-18T05:59:49.193Z,500.00
2024-02-18T06:00:49.629Z,502.00
2024-02-18T06:01:50.135Z,501.00
2024-02-18T06:02:50.235Z,501.00
2024-02-18T06:03:49.324Z,499.00
2024-02-18T06:04:49.160Z,497.00
2024-02-18T06:05:49.341Z,495.00
2024-02-18T06:06:49.294Z,496.00
2024-02-18T06:07:49.161Z,493.00
2024-02-18T06:08:49.143Z,492.00
2024-02-18T06:09:49.229Z,492.00
2024-02-18T06:10:49.364Z,492.00
2024-02-18T06:11:49.175Z,492.00
2024-02-18T06:12:49.295Z,491.00
2024-02-18T06:13:49.178Z,491.00
2024-02-18T06:14:50.071Z,492.00
2024-02-18T06:15:49.277Z,492.00
2024-02-18T06:16:49.191Z,492.00
2024-02-18T06:17:49.467Z,492.00
2024-02-18T06:18:49.264Z,494.00
2024-02-18T06:19:49.166Z,495.00
2024-02-18T06:20:49.523Z,498.00
2024-02-18T06:21:49.188Z,499.00
2024-02-18T06:22:49.146Z,499.00
2024-02-18T06:23:49.202Z,496.00
2024-02-18T06:24:49.280Z,498.00
2024-02-18T06:25:49.193Z,499.00
2024-02-18T06:26:49.181Z,498.00
2024-02-18T06:27:49.243Z,496.00
2024-02-18T06:28:49.278Z,495.00
2024-02-18T06:29:49.197Z,493.00
2024-02-18T06:30:49.254Z,493.00
2024-02-18T06:31:49.174Z,493.00
2024-02-18T06:32:49.216Z,495.00
2024-02-18T06:33:49.359Z,496.00
2024-02-18T06:34:49.326Z,495.00
2024-02-18T06:35:49.245Z,496.00
2024-02-18T06:36:49.230Z,495.00
2024-02-18T06:37:49.188Z,498.00
2024-02-18T06:38:49.193Z,500.00
2024-02-18T06:39:49.269Z,498.00
2024-02-18T06:40:49.222Z,496.00
2024-02-18T06:41:49.201Z,494.00
2024-02-18T06:42:50.276Z,494.00
2024-02-18T06:43:49.201Z,493.00
2024-02-18T06:44:49.299Z,490.00
2024-02-18T06:45:49.242Z,490.00
2024-02-18T06:46:49.218Z,493.00
2024-02-18T06:47:49.315Z,495.00
2024-02-18T06:48:49.325Z,495.00
2024-02-18T06:49:49.532Z,495.00
2024-02-18T06:50:49.252Z,494.00
2024-02-18T06:51:49.267Z,494.00
2024-02-18T06:52:49.195Z,494.00
2024-02-18T06:53:49.227Z,494.00
2024-02-18T06:54:49.277Z,497.00
2024-02-18T06:55:49.224Z,500.00
2024-02-18T06:56:49.238Z,498.00
2024-02-18T06:57:49.307Z,498.00
2024-02-18T06:58:49.289Z,497.00
2024-02-18T06:59:49.364Z,498.00
2024-02-18T07:00:49.586Z,498.00
2024-02-18T07:01:49.432Z,498.00
2024-02-18T07:02:49.416Z,499.00
2024-02-18T07:03:49.532Z,499.00
2024-02-18T07:04:49.463Z,494.00
2024-02-18T07:05:49.657Z,493.00
2024-02-18T07:06:50.509Z,492.00
2024-02-18T07:07:49.491Z,492.00
2024-02-18T07:08:49.478Z,491.00
2024-02-18T07:09:49.582Z,491.00
2024-02-18T07:10:49.614Z,491.00
2024-02-18T07:11:49.496Z,490.00
2024-02-18T07:12:49.570Z,491.00
2024-02-18T07:13:49.517Z,491.00
2024-02-18T07:14:49.538Z,492.00
2024-02-18T07:15:49.612Z,493.00
2024-02-18T07:16:49.522Z,493.00
2024-02-18T07:17:49.584Z,495.00
2024-02-18T07:18:49.569Z,493.00
2024-02-18T07:19:49.597Z,494.00
2024-02-18T07:20:49.512Z,493.00
2024-02-18T07:21:49.546Z,491.00
2024-02-18T07:22:49.559Z,492.00
2024-02-18T07:23:49.577Z,495.00
2024-02-18T07:24:49.680Z,494.00
2024-02-18T07:25:49.613Z,493.00
2024-02-18T07:26:49.725Z,495.00
2024-02-18T07:27:49.743Z,491.00
2024-02-18T07:28:49.696Z,492.00
2024-02-18T07:29:49.727Z,494.00
2024-02-18T07:30:49.835Z,495.00
2024-02-18T07:31:49.808Z,499.00
2024-02-18T07:32:50.082Z,497.00
2024-02-18T07:33:49.960Z,494.00
2024-02-18T07:34:49.981Z,492.00
2024-02-18T07:35:49.991Z,492.00
2024-02-18T07:36:50.029Z,493.00
2024-02-18T07:37:50.007Z,489.00
2024-02-18T07:38:50.592Z,488.00
2024-02-18T07:39:50.078Z,486.00
2024-02-18T07:40:50.112Z,487.00
2024-02-18T07:41:50.123Z,487.00
2024-02-18T07:42:50.196Z,488.00
2024-02-18T07:43:50.170Z,484.00
2024-02-18T07:44:50.314Z,483.00
2024-02-18T07:45:52.714Z,485.00
2024-02-18T07:46:50.259Z,482.00
2024-02-18T07:47:50.345Z,481.00
2024-02-18T07:48:50.456Z,483.00
2024-02-18T07:49:50.319Z,484.00
2024-02-18T07:50:50.299Z,484.00
2024-02-18T07:51:50.252Z,483.00
2024-02-18T07:52:50.240Z,483.00
2024-02-18T07:53:50.258Z,484.00
2024-02-18T07:54:50.316Z,485.00
2024-02-18T07:55:50.263Z,485.00
2024-02-18T07:56:50.273Z,483.00
2024-02-18T07:57:50.310Z,484.00
2024-02-18T07:58:50.301Z,485.00
2024-02-18T07:59:50.263Z,485.00
2024-02-18T08:00:50.365Z,485.00
2024-02-18T08:01:50.426Z,487.00
2024-02-18T08:02:50.290Z,488.00
2024-02-18T08:03:50.367Z,490.00
2024-02-18T08:04:50.391Z,489.00
2024-02-18T08:05:50.335Z,487.00
2024-02-18T08:06:50.421Z,482.00
2024-02-18T08:07:51.098Z,483.00
2024-02-18T08:08:50.292Z,483.00
2024-02-18T08:09:50.440Z,484.00
2024-02-18T08:10:50.272Z,485.00
2024-02-18T08:11:50.355Z,482.00
2024-02-18T08:12:53.337Z,484.00
2024-02-18T08:13:50.296Z,484.00
2024-02-18T08:14:50.378Z,486.00
2024-02-18T08:15:50.386Z,484.00
2024-02-18T08:16:50.330Z,486.00
2024-02-18T08:17:50.367Z,487.00
2024-02-18T08:18:50.398Z,488.00
2024-02-18T08:19:50.425Z,484.00
2024-02-18T08:20:50.446Z,487.00
2024-02-18T08:21:50.389Z,487.00
2024-02-18T08:22:50.358Z,487.00
2024-02-18T08:23:50.311Z,487.00
2024-02-18T08:24:50.370Z,486.00
2024-02-18T08:25:50.584Z,486.00
2024-02-18T08:26:50.321Z,488.00
2024-02-18T08:27:50.354Z,492.00
2024-02-18T08:28:50.340Z,490.00
2024-02-18T08:29:50.355Z,492.00
2024-02-18T08:30:50.409Z,491.00
2024-02-18T08:31:50.319Z,489.00
2024-02-18T08:32:50.447Z,489.00
2024-02-18T08:33:50.516Z,488.00
2024-02-18T08:34:50.494Z,488.00
2024-02-18T08:35:50.348Z,490.00
2024-02-18T08:36:50.398Z,490.00
2024-02-18T08:37:51.148Z,491.00
2024-02-18T08:38:50.411Z,491.00
2024-02-18T08:39:50.406Z,491.00
2024-02-18T08:40:50.339Z,493.00
2024-02-18T08:41:50.345Z,493.00
2024-02-18T08:42:50.395Z,492.00
2024-02-18T08:43:50.357Z,492.00
2024-02-18T08:44:50.352Z,490.00
2024-02-18T08:45:50.385Z,485.00
2024-02-18T08:46:50.356Z,483.00
2024-02-18T08:47:50.394Z,482.00
2024-02-18T08:48:50.433Z,484.00
2024-02-18T08:49:50.513Z,486.00
2024-02-18T08:50:50.610Z,486.00
2024-02-18T08:51:50.381Z,487.00
2024-02-18T08:52:50.457Z,487.00
2024-02-18T08:53:50.394Z,487.00
2024-02-18T08:54:50.404Z,487.00
2024-02-18T08:55:50.386Z,487.00
2024-02-18T08:56:50.366Z,488.00
2024-02-18T08:57:53.147Z,489.00
2024-02-18T08:58:50.404Z,490.00
2024-02-18T08:59:50.376Z,491.00
2024-02-18T09:00:50.501Z,490.00
2024-02-18T09:01:50.436Z,488.00
2024-02-18T09:02:50.437Z,490.00
2024-02-18T09:03:50.458Z,491.00
2024-02-18T09:04:50.719Z,490.00
2024-02-18T09:05:50.481Z,488.00
2024-02-18T09:06:50.505Z,489.00
2024-02-18T09:07:50.418Z,491.00
2024-02-18T09:08:50.490Z,492.00
2024-02-18T09:09:50.435Z,491.00
2024-02-18T09:10:50.456Z,493.00
2024-02-18T09:11:50.412Z,491.00
2024-02-18T09:12:50.426Z,490.00
2024-02-18T09:13:50.441Z,490.00
2024-02-18T09:14:50.486Z,488.00
2024-02-18T09:15:50.481Z,491.00
2024-02-18T09:16:50.486Z,489.00
2024-02-18T09:17:50.449Z,488.00
2024-02-18T09:18:50.528Z,490.00
2024-02-18T09:19:50.651Z,487.00
2024-02-18T09:20:50.465Z,486.00
2024-02-18T09:21:50.519Z,487.00
2024-02-18T09:22:50.422Z,485.00
2024-02-18T09:23:50.410Z,482.00
2024-02-18T09:24:50.557Z,482.00
2024-02-18T09:25:50.459Z,482.00
2024-02-18T09:26:50.485Z,480.00
2024-02-18T09:27:50.478Z,481.00
2024-02-18T09:28:50.537Z,483.00
2024-02-18T09:29:50.465Z,484.00
2024-02-18T09:30:50.585Z,485.00
2024-02-18T09:31:50.525Z,483.00
2024-02-18T09:32:50.448Z,483.00
2024-02-18T09:33:50.524Z,484.00
2024-02-18T09:34:50.579Z,485.00
2024-02-18T09:35:50.571Z,487.00
2024-02-18T09:36:50.456Z,488.00
2024-02-18T09:37:50.457Z,484.00
2024-02-18T09:38:50.468Z,484.00
2024-02-18T09:39:50.511Z,485.00
2024-02-18T09:40:50.547Z,483.00
2024-02-18T09:41:50.457Z,480.00
2024-02-18T09:42:50.517Z,479.00
2024-02-18T09:43:50.489Z,479.00
2024-02-18T09:44:50.484Z,484.00
2024-02-18T09:45:50.535Z,487.00
2024-02-18T09:46:50.502Z,484.00
2024-02-18T09:47:50.598Z,482.00
2024-02-18T09:48:50.683Z,481.00
2024-02-18T09:49:50.651Z,479.00
2024-02-18T09:50:50.527Z,480.00
2024-02-18T09:51:50.503Z,480.00
2024-02-18T09:52:50.484Z,477.00
2024-02-18T09:53:50.467Z,477.00
2024-02-18T09:54:50.499Z,476.00
2024-02-18T09:55:50.532Z,479.00
2024-02-18T09:56:50.647Z,478.00
2024-02-18T09:57:50.588Z,476.00
2024-02-18T09:58:50.588Z,477.00
2024-02-18T09:59:50.585Z,478.00
2024-02-18T10:00:50.716Z,476.00
2024-02-18T10:01:50.767Z,476.00
2024-02-18T10:02:50.614Z,476.00
2024-02-18T10:03:50.788Z,474.00
2024-02-18T10:04:50.775Z,478.00
2024-02-18T10:05:50.709Z,480.00
2024-02-18T10:06:50.768Z,481.00
2024-02-18T10:07:50.727Z,482.00
2024-02-18T10:08:50.773Z,485.00
2024-02-18T10:09:50.815Z,483.00
2024-02-18T10:10:50.794Z,482.00
2024-02-18T10:11:50.779Z,482.00
2024-02-18T10:12:50.931Z,481.00
2024-02-18T10:13:50.782Z,479.00
2024-02-18T10:14:50.850Z,479.00
2024-02-18T10:15:51.198Z,481.00
2024-02-18T10:16:50.830Z,482.00
2024-02-18T10:17:50.920Z,482.00
2024-02-18T10:18:50.968Z,484.00
2024-02-18T10:19:50.998Z,482.00
2024-02-18T10:20:50.946Z,479.00
2024-02-18T10:21:50.992Z,478.00
2024-02-18T10:22:50.908Z,480.00
2024-02-18T10:23:50.941Z,481.00
2024-02-18T10:24:51.018Z,481.00
2024-02-18T10:25:50.974Z,481.00
2024-02-18T10:26:50.978Z,479.00
2024-02-18T10:27:51.031Z,479.00
2024-02-18T10:28:51.070Z,478.00
2024-02-18T10:29:51.112Z,477.00
2024-02-18T10:30:51.184Z,480.00
2024-02-18T10:31:51.100Z,481.00
2024-02-18T10:32:51.157Z,480.00
2024-02-18T10:33:51.153Z,477.00
2024-02-18T10:34:51.206Z,477.00
2024-02-18T10:35:51.277Z,478.00
2024-02-18T10:36:51.215Z,476.00
2024-02-18T10:37:51.211Z,475.00
2024-02-18T10:38:51.228Z,474.00
2024-02-18T10:39:51.275Z,478.00
2024-02-18T10:40:51.235Z,478.00
2024-02-18T10:41:51.284Z,478.00
2024-02-18T10:42:51.342Z,475.00
2024-02-18T10:43:51.362Z,474.00
2024-02-18T10:44:51.435Z,475.00
2024-02-18T10:45:51.370Z,478.00
2024-02-18T10:46:51.378Z,480.00
2024-02-18T10:47:51.471Z,482.00
2024-02-18T10:48:51.507Z,480.00
2024-02-18T10:49:51.498Z,479.00
2024-02-18T10:50:51.518Z,481.00
2024-02-18T10:51:51.547Z,481.00
2024-02-18T10:52:51.520Z,481.00
2024-02-18T10:53:51.547Z,482.00
2024-02-18T10:54:51.552Z,480.00
2024-02-18T10:55:51.588Z,480.00
2024-02-18T10:56:51.604Z,480.00
2024-02-18T10:57:51.602Z,480.00
2024-02-18T10:58:51.703Z,480.00
2024-02-18T10:59:51.625Z,478.00
2024-02-18T11:00:51.815Z,477.00
2024-02-18T11:01:51.749Z,480.00
2024-02-18T11:02:51.667Z,476.00
2024-02-18T11:03:51.747Z,477.00
2024-02-18T11:04:51.659Z,481.00
2024-02-18T11:05:51.766Z,482.00
2024-02-18T11:06:51.856Z,479.00
2024-02-18T11:07:51.732Z,478.00
2024-02-18T11:08:51.687Z,478.00
2024-02-18T11:09:51.718Z,478.00
2024-02-18T11:10:51.758Z,479.00
2024-02-18T11:11:51.711Z,477.00
2024-02-18T11:12:51.736Z,478.00
2024-02-18T11:13:51.711Z,477.00
2024-02-18T11:14:51.770Z,479.00
2024-02-18T11:15:51.853Z,482.00
2024-02-18T11:16:51.879Z,483.00
2024-02-18T11:17:51.891Z,482.00
2024-02-18T11:18:51.903Z,482.00
2024-02-18T11:19:51.988Z,486.00
2024-02-18T11:20:51.901Z,486.00
2024-02-18T11:21:52.005Z,482.00
2024-02-18T11:22:51.987Z,484.00
2024-02-18T11:23:52.050Z,484.00
2024-02-18T11:24:52.133Z,486.00
2024-02-18T11:25:52.139Z,485.00
2024-02-18T11:26:52.160Z,489.00
2024-02-18T11:27:52.288Z,489.00
2024-02-18T11:28:52.183Z,488.00
2024-02-18T11:29:52.239Z,489.00
2024-02-18T11:30:52.285Z,489.00
2024-02-18T11:31:52.317Z,489.00
2024-02-18T11:32:52.497Z,488.00
2024-02-18T11:33:52.528Z,482.00
2024-02-18T11:34:52.632Z,483.00
2024-02-18T11:35:52.542Z,483.00
2024-02-18T11:36:52.713Z,483.00
2024-02-18T11:37:52.665Z,485.00
2024-02-18T11:38:52.712Z,485.00
2024-02-18T11:39:52.759Z,485.00
2024-02-18T11:40:52.789Z,486.00
2024-02-18T11:41:52.853Z,483.00
2024-02-18T11:42:52.945Z,484.00
2024-02-18T11:43:52.964Z,484.00
2024-02-18T11:44:53.004Z,486.00
2024-02-18T11:45:53.115Z,488.00
2024-02-18T11:46:53.226Z,488.00
2024-02-18T11:47:53.409Z,486.00
2024-02-18T11:48:53.442Z,485.00
2024-02-18T11:49:53.366Z,488.00
2024-02-18T11:50:53.650Z,488.00
2024-02-18T11:51:53.567Z,491.00
2024-02-18T11:52:53.542Z,492.00
2024-02-18T11:53:53.611Z,493.00
2024-02-18T11:54:53.747Z,493.00
2024-02-18T11:55:53.791Z,494.00
2024-02-18T11:56:53.849Z,495.00
2024-02-18T11:57:54.032Z,495.00
2024-02-18T11:58:53.994Z,496.00
2024-02-18T11:59:54.050Z,496.00
2024-02-18T12:00:54.233Z,495.00
2024-02-18T12:01:54.227Z,494.00
2024-02-18T12:02:54.339Z,493.00
2024-02-18T12:03:54.467Z,493.00
2024-02-18T12:04:54.498Z,494.00
2024-02-18T12:05:54.769Z,493.00
2024-02-18T12:06:54.660Z,493.00
2024-02-18T12:07:54.683Z,494.00
2024-02-18T12:08:54.737Z,496.00
2024-02-18T12:09:54.787Z,494.00
2024-02-18T12:10:54.899Z,494.00
2024-02-18T12:11:54.918Z,494.00
2024-02-18T12:12:55.053Z,493.00
2024-02-18T12:13:55.704Z,492.00
2024-02-18T12:14:55.140Z,494.00
2024-02-18T12:15:55.258Z,490.00
2024-02-18T12:16:55.291Z,487.00
2024-02-18T12:17:55.853Z,487.00
2024-02-18T12:18:55.481Z,488.00
2024-02-18T12:19:55.602Z,489.00
2024-02-18T12:20:55.552Z,490.00
2024-02-18T12:21:55.692Z,496.00
2024-02-18T12:22:55.666Z,494.00
2024-02-18T12:23:55.721Z,495.00
2024-02-18T12:24:55.799Z,494.00
2024-02-18T12:25:55.832Z,491.00
2024-02-18T12:26:55.857Z,489.00
2024-02-18T12:27:55.988Z,491.00
2024-02-18T12:28:56.022Z,492.00